createdAt,value
2022-11-05T00:01:42.626Z,21.03
2022-11-05T00:04:30.898Z,20.03
2022-11-05T00:07:20.660Z,21.67
2022-11-05T00:10:44.760Z,19.97
2022-11-05T00:13:30.059Z,20.43
2022-11-05T00:16:15.362Z,22.10
2022-11-05T00:19:00.844Z,20.20
2022-11-05T00:21:46.115Z,24.07
2022-11-05T00:24:31.788Z,20.57
2022-11-05T00:27:16.969Z,17.20
2022-11-05T00:30:02.263Z,18.40
2022-11-05T00:32:49.131Z,17.70
2022-11-05T00:35:34.284Z,20.17
2022-11-05T00:38:19.367Z,17.80
2022-11-05T00:41:04.827Z,19.17
2022-11-05T00:43:50.022Z,12.60
2022-11-05T00:46:35.349Z,15.27
2022-11-05T00:49:20.361Z,14.73
2022-11-05T00:52:05.391Z,20.33
2022-11-05T00:54:50.453Z,19.07
2022-11-05T00:57:35.676Z,18.83
2022-11-05T01:00:21.628Z,22.30
2022-11-05T01:03:10.007Z,21.87
2022-11-05T01:05:58.133Z,12.90
2022-11-05T01:08:45.477Z,9.67
2022-11-05T01:11:30.629Z,10.00
2022-11-05T01:14:16.087Z,13.67
2022-11-05T01:17:01.290Z,12.33
2022-11-05T01:19:46.433Z,13.80
2022-11-05T01:22:31.862Z,16.77
2022-11-05T01:25:16.912Z,16.43
2022-11-05T01:28:03.207Z,14.13
2022-11-05T01:30:55.585Z,13.63
2022-11-05T01:33:40.834Z,15.37
2022-11-05T01:36:26.188Z,16.40
2022-11-05T01:39:11.313Z,17.07
2022-11-05T01:41:56.821Z,18.80
2022-11-05T01:45:03.443Z,16.83
2022-11-05T01:48:02.231Z,15.90
2022-11-05T01:50:55.337Z,16.93
2022-11-05T01:53:43.618Z,19.83
2022-11-05T01:56:40.618Z,17.10
2022-11-05T01:59:35.446Z,15.23
2022-11-05T02:02:21.212Z,17.10
2022-11-05T02:05:06.896Z,16.57
2022-11-05T02:07:53.479Z,13.87
2022-11-05T02:10:39.773Z,10.87
2022-11-05T02:13:25.218Z,11.90
2022-11-05T02:16:13.645Z,14.97
2022-11-05T02:19:07.617Z,16.47
2022-11-05T02:22:14.946Z,9.77
2022-11-05T02:25:02.452Z,20.00
2022-11-05T02:27:56.977Z,18.87
2022-11-05T02:31:01.312Z,14.43
2022-11-05T02:34:17.338Z,16.50
2022-11-05T02:37:17.114Z,18.13
2022-11-05T02:40:07.193Z,18.20
2022-11-05T02:43:15.367Z,17.97
2022-11-05T02:46:12.014Z,16.87
2022-11-05T02:49:09.403Z,16.93
2022-11-05T02:52:02.104Z,19.37
2022-11-05T02:55:03.761Z,24.00
2022-11-05T02:57:49.216Z,42.07
2022-11-05T03:00:53.387Z,43.87
2022-11-05T03:03:44.699Z,28.00
2022-11-05T03:06:52.622Z,35.30
2022-11-05T03:09:49.837Z,26.83
2022-11-05T03:12:53.812Z,21.80
2022-11-05T03:16:02.402Z,21.70
2022-11-05T03:18:50.781Z,22.40
2022-11-05T03:21:45.340Z,23.30
2022-11-05T03:24:34.100Z,23.53
2022-11-05T03:27:26.186Z,24.37
2022-11-05T03:30:13.738Z,47.03
2022-11-05T03:33:04.748Z,27.47
2022-11-05T03:36:00.612Z,26.33
2022-11-05T03:38:49.619Z,29.03
2022-11-05T03:41:38.377Z,27.50
2022-11-05T03:44:31.555Z,48.30
2022-11-05T03:47:26.380Z,28.07
2022-11-05T03:50:29.634Z,29.30
2022-11-05T03:53:18.321Z,34.37
2022-11-05T03:56:13.805Z,34.47
2022-11-05T03:59:01.631Z,40.50
2022-11-05T04:01:47.830Z,43.37
2022-11-05T04:04:33.372Z,51.87
2022-11-05T04:07:18.929Z,41.20
2022-11-05T04:10:04.524Z,32.43
2022-11-05T04:12:49.708Z,36.43
2022-11-05T04:15:35.117Z,44.63
2022-11-05T04:18:20.874Z,47.63
2022-11-05T04:21:07.120Z,42.27
2022-11-05T04:23:52.885Z,51.27
2022-11-05T04:26:40.971Z,49.27
2022-11-05T04:29:26.050Z,41.73
2022-11-05T04:32:11.106Z,37.63
2022-11-05T04:34:56.140Z,40.30
2022-11-05T04:37:41.177Z,37.63
2022-11-05T04:40:27.012Z,38.50
2022-11-05T04:43:15.416Z,42.43
2022-11-05T04:46:00.976Z,36.37
2022-11-05T04:48:46.553Z,42.70
2022-11-05T04:51:31.617Z,38.93
2022-11-05T04:54:17.180Z,34.60
2022-11-05T04:57:02.159Z,46.77
2022-11-05T04:59:50.347Z,38.57
2022-11-05T05:02:36.900Z,43.43
2022-11-05T05:05:22.535Z,39.67
2022-11-05T05:08:07.719Z,39.83
2022-11-05T05:10:53.020Z,36.63
2022-11-05T05:13:38.195Z,42.00
2022-11-05T05:16:26.011Z,37.13
2022-11-05T05:19:11.281Z,36.83
2022-11-05T05:21:56.920Z,41.23
2022-11-05T05:24:42.283Z,41.23
2022-11-05T05:27:28.382Z,52.90
2022-11-05T05:30:13.650Z,35.10
2022-11-05T05:33:02.548Z,45.40
2022-11-05T05:35:47.739Z,42.57
2022-11-05T05:38:33.833Z,51.53
2022-11-05T05:41:19.166Z,49.97
2022-11-05T05:44:05.508Z,39.23
2022-11-05T05:46:50.836Z,50.43
2022-11-05T05:49:36.215Z,57.33
2022-11-05T05:52:21.381Z,45.33
2022-11-05T05:55:06.752Z,45.70
2022-11-05T05:57:52.218Z,54.53
2022-11-05T06:00:37.722Z,55.07
2022-11-05T06:03:23.039Z,45.93
2022-11-05T06:06:13.199Z,52.83
2022-11-05T06:08:58.301Z,43.23
2022-11-05T06:11:43.709Z,58.40
2022-11-05T06:14:29.198Z,48.13
2022-11-05T06:17:14.548Z,53.37
2022-11-05T06:20:00.123Z,44.80
2022-11-05T06:22:54.499Z,56.87
2022-11-05T06:25:41.420Z,54.73
2022-11-05T06:28:27.234Z,51.27
2022-11-05T06:31:15.181Z,49.20
2022-11-05T06:34:04.223Z,61.33
2022-11-05T06:36:49.488Z,52.67
2022-11-05T06:39:34.518Z,47.90
2022-11-05T06:42:19.724Z,40.87
2022-11-05T06:45:05.598Z,50.33
2022-11-05T06:47:58.155Z,44.30
2022-11-05T06:50:45.211Z,68.37
2022-11-05T06:53:31.157Z,50.53
2022-11-05T06:56:16.446Z,73.10
2022-11-05T06:59:01.665Z,47.23
2022-11-05T07:01:47.233Z,47.47
2022-11-05T07:04:32.977Z,55.73
2022-11-05T07:07:18.197Z,68.50
2022-11-05T07:10:04.003Z,53.67
2022-11-05T07:12:49.537Z,56.93
2022-11-05T07:15:34.662Z,50.93
2022-11-05T07:18:19.943Z,38.33
2022-11-05T07:21:05.432Z,34.97
2022-11-05T07:23:50.919Z,41.83
2022-11-05T07:26:36.189Z,48.17
2022-11-05T07:29:21.427Z,41.03
2022-11-05T07:32:06.926Z,41.40
2022-11-05T07:34:52.313Z,36.07
2022-11-05T07:37:48.931Z,38.00
2022-11-05T07:40:33.723Z,42.23
2022-11-05T07:43:18.839Z,38.97
2022-11-05T07:46:04.117Z,41.07
2022-11-05T07:48:49.937Z,41.40
2022-11-05T07:51:35.218Z,36.77
2022-11-05T07:54:21.699Z,35.80
2022-11-05T07:57:07.113Z,40.77
2022-11-05T07:59:52.281Z,40.60
2022-11-05T08:02:38.057Z,38.80
2022-11-05T08:05:23.581Z,40.20
2022-11-05T08:08:09.849Z,37.80
2022-11-05T08:11:02.892Z,37.03
2022-11-05T08:13:47.937Z,36.07
2022-11-05T08:16:32.804Z,33.10
2022-11-05T08:19:17.964Z,35.47
2022-11-05T08:22:03.312Z,35.83
2022-11-05T08:24:48.582Z,34.53
2022-11-05T08:27:33.808Z,34.30
2022-11-05T08:30:19.159Z,34.03
2022-11-05T08:33:10.675Z,35.33
2022-11-05T08:35:56.953Z,34.67
2022-11-05T08:38:42.629Z,33.70
2022-11-05T08:41:28.417Z,32.10
2022-11-05T08:44:14.024Z,31.93
2022-11-05T08:46:59.495Z,31.67
2022-11-05T08:49:44.827Z,30.90
2022-11-05T08:52:30.144Z,30.47
2022-11-05T08:55:15.426Z,30.80
2022-11-05T08:58:03.424Z,30.43
2022-11-05T09:00:49.574Z,30.40
2022-11-05T09:03:35.202Z,27.60
2022-11-05T09:06:20.342Z,27.57
2022-11-05T09:09:05.802Z,25.13
2022-11-05T09:12:11.014Z,28.07
2022-11-05T09:14:59.488Z,24.57
2022-11-05T09:17:44.688Z,25.67
2022-11-05T09:20:30.006Z,25.13
2022-11-05T09:23:15.406Z,25.00
2022-11-05T09:26:02.325Z,24.27
2022-11-05T09:28:48.459Z,21.77
2022-11-05T09:31:33.715Z,22.37
2022-11-05T09:34:18.717Z,21.77
2022-11-05T09:37:04.411Z,20.57
2022-11-05T09:39:49.655Z,21.43
2022-11-05T09:42:41.599Z,20.27
2022-11-05T09:45:28.666Z,19.03
2022-11-05T09:48:17.556Z,20.60
2022-11-05T09:51:04.440Z,19.97
2022-11-05T09:53:49.871Z,18.83
2022-11-05T09:56:44.443Z,15.77
2022-11-05T09:59:40.531Z,17.83
2022-11-05T10:02:30.992Z,16.97
2022-11-05T10:05:18.778Z,15.77
2022-11-05T10:08:30.438Z,14.87
2022-11-05T10:11:25.427Z,16.07
2022-11-05T10:14:18.224Z,16.27
2022-11-05T10:17:25.156Z,15.40
2022-11-05T10:20:16.808Z,15.43
2022-11-05T10:23:16.317Z,15.93
2022-11-05T10:26:13.977Z,15.10
2022-11-05T10:28:59.569Z,14.30
2022-11-05T10:31:48.192Z,15.27
2022-11-05T10:34:39.109Z,14.00
2022-11-05T10:37:26.911Z,14.53
2022-11-05T10:40:36.661Z,13.70
2022-11-05T10:43:47.385Z,11.73
2022-11-05T10:46:37.597Z,12.10
2022-11-05T10:49:42.280Z,13.13
2022-11-05T10:52:31.684Z,13.20
2022-11-05T10:55:22.817Z,12.70
2022-11-05T10:58:17.223Z,12.83
2022-11-05T11:01:07.226Z,12.80
2022-11-05T11:04:05.611Z,12.60
2022-11-05T11:06:56.211Z,11.73
2022-11-05T11:09:48.337Z,12.43
2022-11-05T11:12:42.447Z,11.27
2022-11-05T11:15:30.058Z,11.30
2022-11-05T11:18:40.451Z,10.77
2022-11-05T11:21:25.814Z,10.23
2022-11-05T11:24:20.650Z,11.53
2022-11-05T11:27:11.198Z,9.23
2022-11-05T11:30:06.529Z,9.67
2022-11-05T11:33:03.472Z,9.87
2022-11-05T11:35:48.768Z,9.43
2022-11-05T11:38:35.772Z,9.13
2022-11-05T11:41:35.246Z,8.47
2022-11-05T11:44:26.029Z,8.10
2022-11-05T11:47:18.674Z,8.37
2022-11-05T11:50:03.894Z,8.60
2022-11-05T11:52:49.333Z,7.97
2022-11-05T11:55:34.127Z,7.37
2022-11-05T11:58:19.144Z,7.90
2022-11-05T12:01:15.658Z,8.10
2022-11-05T12:04:19.574Z,7.00
2022-11-05T12:07:23.806Z,7.23
2022-11-05T12:10:26.069Z,7.77
2022-11-05T12:13:21.368Z,6.97
2022-11-05T12:16:20.453Z,8.00
2022-11-05T12:19:40.828Z,6.70
2022-11-05T12:23:01.863Z,6.63
2022-11-05T12:26:10.455Z,6.90
2022-11-05T12:29:19.362Z,7.60
2022-11-05T12:32:23.679Z,8.53
2022-11-05T12:35:14.580Z,7.30
2022-11-05T12:38:47.451Z,7.30
2022-11-05T12:41:46.194Z,6.80
2022-11-05T12:45:00.462Z,7.10
2022-11-05T12:48:04.204Z,6.90
2022-11-05T12:51:00.695Z,6.40
2022-11-05T12:53:51.763Z,7.00
2022-11-05T12:56:45.291Z,6.33
2022-11-05T12:59:34.401Z,6.30
2022-11-05T13:02:26.524Z,6.67
2022-11-05T13:05:36.027Z,6.40
2022-11-05T13:08:31.222Z,6.27
2022-11-05T13:11:21.360Z,6.80
2022-11-05T13:14:06.613Z,6.50
2022-11-05T13:16:59.949Z,7.00
2022-11-05T13:20:05.654Z,7.20
2022-11-05T13:23:35.267Z,7.23
2022-11-05T13:26:47.367Z,7.10
2022-11-05T13:29:45.343Z,6.80
2022-11-05T13:32:40.834Z,5.87
2022-11-05T13:35:52.240Z,5.93
2022-11-05T13:38:41.504Z,7.13
2022-11-05T13:41:30.275Z,7.10
2022-11-05T13:44:27.909Z,6.93
2022-11-05T13:47:34.189Z,6.57
2022-11-05T13:50:25.289Z,7.50
2022-11-05T13:53:35.520Z,7.27
2022-11-05T13:56:29.476Z,7.77
2022-11-05T13:59:57.539Z,6.67
2022-11-05T14:02:59.780Z,7.13
2022-11-05T14:05:57.546Z,6.37
2022-11-05T14:08:46.265Z,6.80
2022-11-05T14:11:34.919Z,6.93
2022-11-05T14:14:29.541Z,6.40
2022-11-05T14:17:27.315Z,6.60
2022-11-05T14:20:56.278Z,6.20
2022-11-05T14:23:50.217Z,6.33
2022-11-05T14:26:35.486Z,7.20
2022-11-05T14:29:23.489Z,6.27
2022-11-05T14:32:17.638Z,7.13
2022-11-05T14:35:02.578Z,7.50
2022-11-05T14:37:53.836Z,6.90
2022-11-05T14:40:40.526Z,6.80
2022-11-05T14:43:27.752Z,6.40
2022-11-05T14:46:13.890Z,7.33
2022-11-05T14:49:09.142Z,6.17
2022-11-05T14:51:57.302Z,5.97
2022-11-05T14:54:50.853Z,5.80
2022-11-05T14:57:41.636Z,6.07
2022-11-05T15:00:29.739Z,6.10
2022-11-05T15:03:46.856Z,6.27
2022-11-05T15:06:38.762Z,6.50
2022-11-05T15:09:51.631Z,6.60
2022-11-05T15:12:39.661Z,7.63
2022-11-05T15:15:27.959Z,8.67
2022-11-05T15:18:45.874Z,6.83
2022-11-05T15:21:39.349Z,6.53
2022-11-05T15:24:26.430Z,7.70
2022-11-05T15:27:27.622Z,6.97
2022-11-05T15:30:21.859Z,8.50
2022-11-05T15:33:19.020Z,7.33
2022-11-05T15:36:27.782Z,7.70
2022-11-05T15:39:38.611Z,7.37
2022-11-05T15:42:25.834Z,7.40
2022-11-05T15:45:20.553Z,7.17
2022-11-05T15:48:18.974Z,7.20
2022-11-05T15:51:04.723Z,6.97
2022-11-05T15:54:23.924Z,6.87
2022-11-05T15:56:57.185Z,6.90
2022-11-05T15:59:46.864Z,6.87
2022-11-05T16:02:34.511Z,6.27
2022-11-05T16:05:20.384Z,7.47
2022-11-05T16:08:05.492Z,6.43
2022-11-05T16:10:53.661Z,6.40
2022-11-05T16:13:43.045Z,6.33
2022-11-05T16:16:33.895Z,6.93
2022-11-05T16:19:41.751Z,6.47
2022-11-05T16:22:54.643Z,6.43
2022-11-05T16:25:43.315Z,6.97
2022-11-05T16:28:29.901Z,6.47
2022-11-05T16:31:15.036Z,7.63
2022-11-05T16:34:01.639Z,6.77
2022-11-05T16:36:46.723Z,6.20
2022-11-05T16:39:31.576Z,6.70
2022-11-05T16:42:22.419Z,5.97
2022-11-05T16:45:11.395Z,6.40
2022-11-05T16:47:56.513Z,7.00
2022-11-05T16:50:42.602Z,7.30
2022-11-05T16:53:27.976Z,7.33
2022-11-05T16:56:21.342Z,7.37
2022-11-05T16:59:09.319Z,7.00
2022-11-05T17:01:56.014Z,7.47
2022-11-05T17:04:41.591Z,7.50
2022-11-05T17:07:26.908Z,7.80
2022-11-05T17:10:11.844Z,7.53
2022-11-05T17:12:56.938Z,8.13
2022-11-05T17:15:43.888Z,8.67
2022-11-05T17:18:28.925Z,8.63
2022-11-05T17:21:13.783Z,8.17
2022-11-05T17:23:59.079Z,7.87
2022-11-05T17:26:44.544Z,7.53
2022-11-05T17:29:29.878Z,8.20
2022-11-05T17:32:14.697Z,8.27
2022-11-05T17:34:59.513Z,7.43
2022-11-05T17:37:44.533Z,7.27
2022-11-05T17:40:29.761Z,6.53
2022-11-05T17:43:15.150Z,6.90
2022-11-05T17:46:04.359Z,6.30
2022-11-05T17:48:49.539Z,7.10
2022-11-05T17:51:34.683Z,7.50
2022-11-05T17:54:19.555Z,6.80
2022-11-05T17:57:05.098Z,7.07
2022-11-05T17:59:50.257Z,7.63
2022-11-05T18:02:35.303Z,7.27
2022-11-05T18:05:22.022Z,7.47
2022-11-05T18:08:08.530Z,7.60
2022-11-05T18:10:53.955Z,7.27
2022-11-05T18:13:39.026Z,7.17
2022-11-05T18:16:24.557Z,7.90
2022-11-05T18:19:12.955Z,7.77
2022-11-05T18:21:58.024Z,7.33
2022-11-05T18:24:43.720Z,6.50
2022-11-05T18:27:28.836Z,6.60
2022-11-05T18:30:14.056Z,6.37
2022-11-05T18:32:59.175Z,6.43
2022-11-05T18:35:44.565Z,6.83
2022-11-05T18:38:35.391Z,6.53
2022-11-05T18:41:21.652Z,6.57
2022-11-05T18:44:07.110Z,6.37
2022-11-05T18:46:57.942Z,6.37
2022-11-05T18:49:43.731Z,6.50
2022-11-05T18:52:28.540Z,6.77
2022-11-05T18:55:13.387Z,6.13
2022-11-05T18:57:58.329Z,6.20
2022-11-05T19:00:43.158Z,6.10
2022-11-05T19:03:28.577Z,6.17
2022-11-05T19:06:13.787Z,6.10
2022-11-05T19:08:58.924Z,6.07
2022-11-05T19:11:43.725Z,6.87
2022-11-05T19:14:29.236Z,6.20
2022-11-05T19:17:15.469Z,6.40
2022-11-05T19:20:08.002Z,6.13
2022-11-05T19:22:53.243Z,6.27
2022-11-05T19:25:44.116Z,6.60
2022-11-05T19:28:29.028Z,6.27
2022-11-05T19:31:17.555Z,6.50
2022-11-05T19:34:04.681Z,7.00
2022-11-05T19:36:49.764Z,6.50
2022-11-05T19:39:35.745Z,6.77
2022-11-05T19:42:27.242Z,6.60
2022-11-05T19:45:38.215Z,6.57
2022-11-05T19:48:19.689Z,6.90
2022-11-05T19:51:16.177Z,6.60
2022-11-05T19:54:02.279Z,6.00
2022-11-05T19:56:50.073Z,6.90
2022-11-05T19:59:35.209Z,7.10
2022-11-05T20:02:20.156Z,7.13
2022-11-05T20:05:05.586Z,7.03
2022-11-05T20:07:52.992Z,6.57
2022-11-05T20:10:38.347Z,6.90
2022-11-05T20:13:23.953Z,6.63
2022-11-05T20:16:19.712Z,7.53
2022-11-05T20:19:07.555Z,7.57
2022-11-05T20:21:52.612Z,7.13
2022-11-05T20:24:38.212Z,7.07
2022-11-05T20:27:23.351Z,6.40
2022-11-05T20:30:09.345Z,6.80
2022-11-05T20:32:56.284Z,7.37
2022-11-05T20:35:41.799Z,6.70
2022-11-05T20:38:27.222Z,6.87
2022-11-05T20:41:14.192Z,7.20
2022-11-05T20:43:59.393Z,6.77
2022-11-05T20:46:44.804Z,7.00
2022-11-05T20:49:31.755Z,6.93
2022-11-05T20:52:16.818Z,7.23
2022-11-05T20:55:01.811Z,7.10
2022-11-05T20:57:47.241Z,7.00
2022-11-05T21:00:32.074Z,7.37
2022-11-05T21:03:17.765Z,7.07
2022-11-05T21:06:05.037Z,7.00
2022-11-05T21:08:51.327Z,7.47
2022-11-05T21:11:36.461Z,7.40
2022-11-05T21:14:24.823Z,7.30
2022-11-05T21:17:13.508Z,7.50
2022-11-05T21:19:58.560Z,7.70
2022-11-05T21:22:43.877Z,7.87
2022-11-05T21:25:28.804Z,7.73
2022-11-05T21:28:15.963Z,8.17
2022-11-05T21:31:02.729Z,8.20
2022-11-05T21:33:53.959Z,8.93
2022-11-05T21:36:46.496Z,8.03
2022-11-05T21:39:33.210Z,8.50
2022-11-05T21:42:24.344Z,8.33
2022-11-05T21:45:10.682Z,7.97
2022-11-05T21:47:56.352Z,8.00
2022-11-05T21:50:42.081Z,8.57
2022-11-05T21:53:27.442Z,8.07
2022-11-05T21:56:24.315Z,8.13
2022-11-05T21:59:18.026Z,8.07
2022-11-05T22:02:04.570Z,7.97
2022-11-05T22:04:52.902Z,8.07
2022-11-05T22:07:39.059Z,8.47
2022-11-05T22:10:24.243Z,8.00
2022-11-05T22:13:09.526Z,8.30
2022-11-05T22:15:57.787Z,8.67
2022-11-05T22:18:42.645Z,8.30
2022-11-05T22:21:27.541Z,8.33
2022-11-05T22:24:12.768Z,8.27
2022-11-05T22:27:04.163Z,7.97
2022-11-05T22:29:49.960Z,8.93
2022-11-05T22:32:35.029Z,8.70
2022-11-05T22:35:19.938Z,8.73
2022-11-05T22:38:05.456Z,9.00
2022-11-05T22:40:50.869Z,8.53
2022-11-05T22:43:36.531Z,8.73
2022-11-05T22:46:24.232Z,8.63
2022-11-05T22:49:09.383Z,8.53
2022-11-05T22:51:54.626Z,8.30
2022-11-05T22:54:39.702Z,8.80
2022-11-05T22:57:24.722Z,8.43
2022-11-05T23:00:16.159Z,9.63
2022-11-05T23:03:01.684Z,9.10
2022-11-05T23:05:47.095Z,8.20
2022-11-05T23:08:33.534Z,8.90
2022-11-05T23:11:21.211Z,8.73
2022-11-05T23:14:12.239Z,8.83
2022-11-05T23:16:57.108Z,8.97
2022-11-05T23:19:42.715Z,8.20
2022-11-05T23:22:29.349Z,8.23
2022-11-05T23:25:20.327Z,8.20
2022-11-05T23:28:07.950Z,8.83
2022-11-05T23:30:53.305Z,8.10
2022-11-05T23:33:38.720Z,8.77
2022-11-05T23:36:23.910Z,8.67
2022-11-05T23:39:09.132Z,8.17
2022-11-05T23:41:53.910Z,8.47
2022-11-05T23:44:38.945Z,8.63
2022-11-05T23:47:23.752Z,9.00
2022-11-05T23:50:08.822Z,9.20
2022-11-05T23:52:54.310Z,8.90
2022-11-05T23:55:39.462Z,8.90
2022-11-05T23:58:24.482Z,9.13
